createdAt,value
2022-12-27T00:00:04.361Z,7.80
2022-12-27T00:03:07.202Z,7.80
2022-12-27T00:05:38.433Z,7.80
2022-12-27T00:08:09.726Z,7.80
2022-12-27T00:10:40.972Z,7.80
2022-12-27T00:13:11.460Z,7.80
2022-12-27T00:15:42.649Z,7.80
2022-12-27T00:18:16.076Z,7.80
2022-12-27T00:20:47.632Z,7.80
2022-12-27T00:23:18.932Z,7.70
2022-12-27T00:25:51.301Z,7.70
2022-12-27T00:28:22.975Z,7.70
2022-12-27T00:30:58.087Z,7.80
2022-12-27T00:33:36.029Z,7.80
2022-12-27T00:36:09.761Z,7.80
2022-12-27T00:38:41.391Z,7.80
2022-12-27T00:41:13.434Z,7.80
2022-12-27T00:43:45.386Z,7.80
2022-12-27T00:46:16.869Z,7.80
2022-12-27T00:48:50.898Z,7.80
2022-12-27T00:51:23.858Z,7.90
2022-12-27T00:53:56.148Z,7.90
2022-12-27T00:56:30.814Z,7.90
2022-12-27T00:59:04.956Z,8.00
2022-12-27T01:01:38.411Z,7.90
2022-12-27T01:04:13.595Z,8.00
2022-12-27T01:06:44.762Z,8.00
2022-12-27T01:09:16.299Z,8.00
2022-12-27T01:11:47.705Z,8.00
2022-12-27T01:14:18.681Z,8.00
2022-12-27T01:16:50.348Z,8.00
2022-12-27T01:19:23.764Z,8.00
2022-12-27T01:21:55.031Z,8.00
2022-12-27T01:24:26.696Z,8.00
2022-12-27T01:26:58.035Z,8.00
2022-12-27T01:29:28.708Z,8.00
2022-12-27T01:32:00.453Z,8.00
2022-12-27T01:34:33.875Z,8.00
2022-12-27T01:37:06.108Z,8.00
2022-12-27T01:39:37.533Z,8.00
2022-12-27T01:42:30.046Z,8.00
2022-12-27T01:45:02.266Z,8.00
2022-12-27T01:47:41.893Z,8.00
2022-12-27T01:50:26.699Z,8.00
2022-12-27T01:53:04.617Z,8.00
2022-12-27T01:55:41.655Z,8.00
2022-12-27T01:58:17.866Z,8.00
2022-12-27T02:00:51.063Z,8.00
2022-12-27T02:03:27.536Z,8.00
2022-12-27T02:06:02.782Z,8.00
2022-12-27T02:08:42.365Z,7.90
2022-12-27T02:11:15.752Z,7.90
2022-12-27T02:13:49.390Z,7.90
2022-12-27T02:16:22.658Z,7.90
2022-12-27T02:18:53.784Z,7.90
2022-12-27T02:22:02.845Z,7.90
2022-12-27T02:24:52.789Z,7.90
2022-12-27T02:27:40.614Z,7.90
2022-12-27T02:30:17.225Z,7.90
2022-12-27T02:32:54.038Z,7.90
2022-12-27T02:35:29.991Z,7.90
2022-12-27T02:38:05.933Z,7.90
2022-12-27T02:40:51.987Z,7.90
2022-12-27T02:43:35.437Z,7.90
2022-12-27T02:46:29.913Z,7.90
2022-12-27T02:49:14.598Z,7.90
2022-12-27T02:52:14.751Z,7.90
2022-12-27T02:55:04.832Z,7.90
2022-12-27T02:57:43.921Z,7.80
2022-12-27T03:00:31.849Z,7.90
2022-12-27T03:03:24.863Z,7.80
2022-12-27T03:06:38.781Z,7.80
2022-12-27T03:09:40.221Z,7.50
2022-12-27T03:12:25.050Z,7.20
2022-12-27T03:15:18.139Z,7.00
2022-12-27T03:17:54.758Z,6.80
2022-12-27T03:20:40.949Z,6.70
2022-12-27T03:23:25.273Z,6.60
2022-12-27T03:25:59.141Z,6.50
2022-12-27T03:28:45.440Z,6.50
2022-12-27T03:31:34.863Z,6.40
2022-12-27T03:34:30.414Z,6.40
2022-12-27T03:37:20.117Z,6.30
2022-12-27T03:39:55.344Z,6.20
2022-12-27T03:42:41.908Z,6.00
2022-12-27T03:45:14.303Z,5.90
2022-12-27T03:47:48.630Z,5.90
2022-12-27T03:50:26.607Z,5.80
2022-12-27T03:53:05.595Z,5.70
2022-12-27T03:55:36.802Z,5.70
2022-12-27T03:58:08.315Z,5.60
2022-12-27T04:00:40.002Z,5.60
2022-12-27T04:03:11.156Z,5.50
2022-12-27T04:05:42.129Z,5.50
2022-12-27T04:08:28.744Z,5.40
2022-12-27T04:11:12.003Z,5.40
2022-12-27T04:13:55.585Z,5.40
2022-12-27T04:16:39.219Z,5.30
2022-12-27T04:19:22.946Z,5.30
2022-12-27T04:22:06.026Z,5.30
2022-12-27T04:24:52.384Z,5.20
2022-12-27T04:27:36.143Z,5.20
2022-12-27T04:30:21.400Z,5.10
2022-12-27T04:33:04.610Z,5.20
2022-12-27T04:35:36.230Z,5.10
2022-12-27T04:38:07.739Z,5.10
2022-12-27T04:40:53.767Z,5.10
2022-12-27T04:43:37.001Z,5.10
2022-12-27T04:46:21.176Z,5.10
2022-12-27T04:49:04.279Z,5.10
2022-12-27T04:51:48.645Z,5.10
2022-12-27T04:54:35.099Z,5.10
2022-12-27T04:57:09.265Z,5.00
2022-12-27T04:59:52.442Z,5.00
2022-12-27T05:02:24.529Z,5.00
2022-12-27T05:04:55.732Z,5.00
2022-12-27T05:07:39.302Z,5.00
2022-12-27T05:10:24.058Z,4.90
2022-12-27T05:13:10.112Z,4.90
2022-12-27T05:15:41.319Z,4.90
2022-12-27T05:18:12.419Z,4.90
2022-12-27T05:20:43.602Z,4.90
2022-12-27T05:23:27.619Z,4.90
2022-12-27T05:25:58.347Z,5.00
2022-12-27T05:28:32.129Z,4.90
2022-12-27T05:31:05.496Z,4.90
2022-12-27T05:33:36.979Z,4.90
2022-12-27T05:36:08.536Z,4.90
2022-12-27T05:38:40.144Z,4.90
2022-12-27T05:41:10.907Z,4.90
2022-12-27T05:43:45.019Z,4.90
2022-12-27T05:46:17.306Z,4.90
2022-12-27T05:48:48.730Z,4.90
2022-12-27T05:51:21.200Z,4.90
2022-12-27T05:53:52.359Z,4.90
2022-12-27T05:56:24.414Z,4.90
2022-12-27T05:58:58.794Z,5.00
2022-12-27T06:01:29.577Z,4.90
2022-12-27T06:04:00.821Z,4.90
2022-12-27T06:06:31.944Z,4.90
2022-12-27T06:09:03.053Z,4.90
2022-12-27T06:11:33.977Z,4.90
2022-12-27T06:14:07.905Z,4.90
2022-12-27T06:16:38.783Z,4.90
2022-12-27T06:19:09.802Z,4.80
2022-12-27T06:21:40.584Z,4.80
2022-12-27T06:24:12.218Z,4.80
2022-12-27T06:26:43.109Z,4.80
2022-12-27T06:29:17.630Z,4.70
2022-12-27T06:31:50.026Z,4.70
2022-12-27T06:34:21.178Z,4.70
2022-12-27T06:36:52.849Z,4.70
2022-12-27T06:39:24.639Z,4.70
2022-12-27T06:41:56.505Z,4.60
2022-12-27T06:44:30.328Z,4.60
2022-12-27T06:47:01.735Z,4.60
2022-12-27T06:49:32.987Z,4.50
2022-12-27T06:52:04.195Z,4.50
2022-12-27T06:54:35.423Z,4.40
2022-12-27T06:57:05.832Z,4.40
2022-12-27T06:59:39.756Z,4.40
2022-12-27T07:02:12.273Z,4.40
2022-12-27T07:04:44.200Z,4.40
2022-12-27T07:07:15.989Z,4.30
2022-12-27T07:09:47.378Z,4.30
2022-12-27T07:12:18.584Z,4.30
2022-12-27T07:14:53.088Z,4.30
2022-12-27T07:17:24.427Z,4.30
2022-12-27T07:19:55.540Z,4.30
2022-12-27T07:22:26.132Z,4.20
2022-12-27T07:24:57.421Z,4.20
2022-12-27T07:27:28.523Z,4.20
2022-12-27T07:30:05.499Z,4.20
2022-12-27T07:32:36.304Z,4.20
2022-12-27T07:35:09.311Z,4.10
2022-12-27T07:37:40.781Z,4.10
2022-12-27T07:40:13.015Z,4.10
2022-12-27T07:42:44.201Z,4.20
2022-12-27T07:45:18.571Z,4.20
2022-12-27T07:47:49.825Z,4.20
2022-12-27T07:50:21.099Z,4.20
2022-12-27T07:52:52.238Z,4.20
2022-12-27T07:55:23.564Z,4.20
2022-12-27T07:57:54.371Z,4.30
2022-12-27T08:00:29.695Z,4.30
2022-12-27T08:03:00.818Z,4.30
2022-12-27T08:05:32.207Z,4.30
2022-12-27T08:08:03.051Z,4.40
2022-12-27T08:10:36.387Z,4.40
2022-12-27T08:13:07.235Z,4.30
2022-12-27T08:15:43.129Z,4.40
2022-12-27T08:18:14.147Z,4.40
2022-12-27T08:20:45.574Z,4.30
2022-12-27T08:23:16.479Z,4.40
2022-12-27T08:25:49.135Z,4.40
2022-12-27T08:28:21.737Z,4.40
2022-12-27T08:30:56.146Z,4.30
2022-12-27T08:33:27.601Z,4.30
2022-12-27T08:36:00.102Z,4.30
2022-12-27T08:38:31.667Z,4.40
2022-12-27T08:41:03.059Z,4.40
2022-12-27T08:43:34.472Z,4.40
2022-12-27T08:46:09.758Z,4.40
2022-12-27T08:48:40.731Z,4.50
2022-12-27T08:51:14.665Z,4.50
2022-12-27T08:53:51.720Z,4.60
2022-12-27T08:56:22.859Z,4.60
2022-12-27T08:58:54.011Z,4.70
2022-12-27T09:01:27.873Z,4.70
2022-12-27T09:03:58.677Z,4.80
2022-12-27T09:06:30.628Z,4.90
2022-12-27T09:09:02.469Z,4.90
2022-12-27T09:11:36.142Z,4.90
2022-12-27T09:14:08.494Z,5.00
2022-12-27T09:16:42.906Z,5.00
2022-12-27T09:19:13.966Z,5.00
2022-12-27T09:21:45.747Z,5.10
2022-12-27T09:24:17.182Z,5.10
2022-12-27T09:26:48.290Z,5.10
2022-12-27T09:29:20.408Z,5.10
2022-12-27T09:31:54.160Z,5.10
2022-12-27T09:34:25.157Z,5.10
2022-12-27T09:36:56.251Z,5.10
2022-12-27T09:39:27.059Z,5.20
2022-12-27T09:42:46.539Z,5.20
2022-12-27T09:45:00.171Z,5.20
2022-12-27T09:47:41.737Z,5.30
2022-12-27T09:50:16.823Z,5.30
2022-12-27T09:52:56.327Z,5.40
2022-12-27T09:55:38.433Z,5.40
2022-12-27T09:58:21.558Z,5.40
2022-12-27T10:00:54.211Z,5.50
2022-12-27T10:03:29.908Z,5.50
2022-12-27T10:06:18.448Z,5.50
2022-12-27T10:08:57.874Z,5.50
2022-12-27T10:11:41.551Z,5.50
2022-12-27T10:14:35.175Z,5.50
2022-12-27T10:17:13.598Z,5.50
2022-12-27T10:19:59.598Z,5.60
2022-12-27T10:22:39.253Z,5.60
2022-12-27T10:25:16.370Z,5.60
2022-12-27T10:27:47.105Z,5.60
2022-12-27T10:30:21.750Z,5.60
2022-12-27T10:32:53.976Z,5.60
2022-12-27T10:35:29.163Z,5.60
2022-12-27T10:38:01.963Z,5.60
2022-12-27T10:40:43.407Z,5.60
2022-12-27T10:43:21.202Z,5.50
2022-12-27T10:45:52.801Z,5.50
2022-12-27T10:48:28.842Z,5.50
2022-12-27T10:51:11.823Z,5.50
2022-12-27T10:53:57.264Z,5.50
2022-12-27T10:56:33.716Z,5.50
2022-12-27T10:59:17.121Z,5.50
2022-12-27T11:01:50.159Z,5.60
2022-12-27T11:04:23.140Z,5.60
2022-12-27T11:07:21.309Z,5.60
2022-12-27T11:09:52.483Z,5.50
2022-12-27T11:12:28.866Z,5.50
2022-12-27T11:15:02.407Z,5.50
2022-12-27T11:17:40.332Z,5.50
2022-12-27T11:20:25.634Z,5.50
2022-12-27T11:23:03.088Z,5.50
2022-12-27T11:25:34.809Z,5.50
2022-12-27T11:28:09.482Z,5.50
2022-12-27T11:30:43.315Z,5.50
2022-12-27T11:33:25.227Z,5.50
2022-12-27T11:35:59.072Z,5.50
2022-12-27T11:38:34.692Z,5.50
2022-12-27T11:41:08.691Z,5.50
2022-12-27T11:43:46.244Z,5.60
2022-12-27T11:46:29.710Z,5.60
2022-12-27T11:49:02.082Z,5.50
2022-12-27T11:51:48.480Z,5.50
2022-12-27T11:54:42.937Z,5.50
2022-12-27T11:57:24.658Z,5.50
2022-12-27T12:00:05.255Z,5.50
2022-12-27T12:02:59.467Z,5.60
2022-12-27T12:06:01.152Z,5.50
2022-12-27T12:09:08.933Z,5.40
2022-12-27T12:11:56.945Z,5.40
2022-12-27T12:14:44.070Z,5.40
2022-12-27T12:17:48.025Z,5.40
2022-12-27T12:20:57.787Z,5.30
2022-12-27T12:23:42.190Z,5.30
2022-12-27T12:26:20.257Z,5.40
2022-12-27T12:29:20.453Z,5.40
2022-12-27T12:32:27.051Z,5.40
2022-12-27T12:35:39.089Z,5.30
2022-12-27T12:38:23.070Z,5.40
2022-12-27T12:41:12.472Z,5.40
2022-12-27T12:44:18.928Z,5.40
2022-12-27T12:47:02.580Z,5.40
2022-12-27T12:49:46.704Z,5.50
2022-12-27T12:52:50.639Z,5.50
2022-12-27T12:55:38.911Z,5.50
2022-12-27T12:58:25.598Z,5.50
2022-12-27T13:01:11.139Z,5.60
2022-12-27T13:04:00.005Z,5.60
2022-12-27T13:07:04.516Z,5.60
2022-12-27T13:09:52.912Z,5.60
2022-12-27T13:12:29.012Z,5.60
2022-12-27T13:15:20.667Z,5.60
2022-12-27T13:18:01.870Z,5.60
2022-12-27T13:21:06.801Z,5.60
2022-12-27T13:23:50.335Z,5.60
2022-12-27T13:26:30.579Z,5.60
2022-12-27T13:29:46.323Z,5.60
2022-12-27T13:32:27.501Z,5.60
2022-12-27T13:35:19.958Z,5.60
2022-12-27T13:38:08.324Z,5.60
2022-12-27T13:40:59.121Z,5.60
2022-12-27T13:44:09.624Z,5.60
2022-12-27T13:46:55.471Z,5.50
2022-12-27T13:49:42.709Z,5.50
2022-12-27T13:52:27.477Z,5.50
2022-12-27T13:55:27.653Z,5.50
2022-12-27T13:58:16.701Z,5.50
2022-12-27T14:00:55.940Z,5.40
2022-12-27T14:03:57.019Z,5.40
2022-12-27T14:06:50.786Z,5.40
2022-12-27T14:09:59.163Z,5.40
2022-12-27T14:13:02.147Z,5.40
2022-12-27T14:16:03.844Z,5.40
2022-12-27T14:19:08.126Z,5.40
2022-12-27T14:22:12.434Z,5.40
2022-12-27T14:25:14.058Z,5.40
2022-12-27T14:28:27.459Z,5.30
2022-12-27T14:31:31.807Z,5.30
2022-12-27T14:34:38.082Z,5.30
2022-12-27T14:37:31.571Z,5.30
2022-12-27T14:40:34.825Z,5.30
2022-12-27T14:43:38.795Z,5.30
2022-12-27T14:46:46.387Z,5.30
2022-12-27T14:50:05.697Z,5.20
2022-12-27T14:53:04.457Z,5.20
2022-12-27T14:55:45.338Z,5.10
2022-12-27T14:58:43.295Z,5.20
2022-12-27T15:01:26.634Z,5.10
2022-12-27T15:04:08.638Z,5.10
2022-12-27T15:07:03.945Z,5.10
2022-12-27T15:09:47.060Z,5.10
2022-12-27T15:12:27.259Z,5.10
2022-12-27T15:15:13.611Z,5.10
2022-12-27T15:18:02.421Z,5.10
2022-12-27T15:20:50.411Z,5.10
2022-12-27T15:23:32.007Z,5.10
2022-12-27T15:26:18.100Z,5.10
2022-12-27T15:29:06.396Z,5.10
2022-12-27T15:31:44.105Z,5.10
2022-12-27T15:34:32.192Z,5.00
2022-12-27T15:37:03.611Z,5.00
2022-12-27T15:39:54.004Z,5.00
2022-12-27T15:42:48.914Z,5.00
2022-12-27T15:45:41.105Z,5.00
2022-12-27T15:48:48.565Z,5.00
2022-12-27T15:51:34.039Z,5.00
2022-12-27T15:54:38.083Z,5.00
2022-12-27T15:57:52.104Z,5.00
2022-12-27T16:00:33.841Z,5.00
2022-12-27T16:03:29.838Z,5.00
2022-12-27T16:06:02.435Z,5.00
2022-12-27T16:08:42.695Z,5.00
2022-12-27T16:11:15.188Z,4.90
2022-12-27T16:13:52.245Z,4.90
2022-12-27T16:16:58.917Z,5.00
2022-12-27T16:20:02.829Z,5.00
2022-12-27T16:22:38.549Z,5.00
2022-12-27T16:25:31.255Z,5.00
2022-12-27T16:28:08.264Z,5.00
2022-12-27T16:30:47.091Z,5.00
2022-12-27T16:33:43.039Z,5.00
2022-12-27T16:36:22.212Z,4.90
2022-12-27T16:39:22.361Z,5.00
2022-12-27T16:42:08.051Z,4.90
2022-12-27T16:44:56.136Z,4.90
2022-12-27T16:48:05.704Z,4.90
2022-12-27T16:51:01.067Z,4.90
2022-12-27T16:54:03.460Z,4.90
2022-12-27T16:56:48.299Z,4.90
2022-12-27T16:59:49.566Z,4.90
2022-12-27T17:02:35.501Z,4.80
2022-12-27T17:05:37.321Z,4.80
2022-12-27T17:08:20.450Z,4.80
2022-12-27T17:11:04.820Z,4.80
2022-12-27T17:13:46.522Z,4.80
2022-12-27T17:16:26.204Z,4.80
2022-12-27T17:19:01.048Z,4.80
2022-12-27T17:21:37.921Z,4.80
2022-12-27T17:24:11.669Z,4.80
2022-12-27T17:27:01.602Z,4.80
2022-12-27T17:29:52.828Z,4.80
2022-12-27T17:32:36.952Z,4.80
2022-12-27T17:35:14.496Z,4.80
2022-12-27T17:38:00.549Z,4.80
2022-12-27T17:40:43.629Z,4.80
2022-12-27T17:43:38.239Z,4.80
2022-12-27T17:46:27.722Z,4.80
2022-12-27T17:49:00.689Z,4.80
2022-12-27T17:51:34.684Z,4.80
2022-12-27T17:54:38.331Z,4.80
2022-12-27T17:57:25.412Z,4.80
2022-12-27T17:59:57.233Z,4.80
2022-12-27T18:02:33.344Z,4.80
2022-12-27T18:05:07.813Z,4.80
2022-12-27T18:07:39.107Z,4.80
2022-12-27T18:10:23.234Z,4.80
2022-12-27T18:12:57.377Z,4.80
2022-12-27T18:15:31.034Z,4.70
2022-12-27T18:18:04.250Z,4.70
2022-12-27T18:20:39.119Z,4.70
2022-12-27T18:23:17.931Z,4.70
2022-12-27T18:26:12.450Z,4.70
2022-12-27T18:28:45.823Z,4.70
2022-12-27T18:31:23.262Z,4.70
2022-12-27T18:33:56.923Z,4.70
2022-12-27T18:36:33.004Z,4.70
2022-12-27T18:39:08.660Z,4.70
2022-12-27T18:41:48.041Z,4.70
2022-12-27T18:44:27.169Z,4.70
2022-12-27T18:47:04.425Z,4.70
2022-12-27T18:49:40.353Z,4.70
2022-12-27T18:52:17.140Z,4.70
2022-12-27T18:54:48.346Z,4.70
2022-12-27T18:57:35.707Z,4.60
2022-12-27T19:00:25.485Z,4.70
2022-12-27T19:03:14.603Z,4.60
2022-12-27T19:06:10.365Z,4.60
2022-12-27T19:08:47.040Z,4.70
2022-12-27T19:11:23.870Z,4.60
2022-12-27T19:14:00.063Z,4.60
2022-12-27T19:16:34.637Z,4.60
2022-12-27T19:19:10.835Z,4.60
2022-12-27T19:21:43.191Z,4.60
2022-12-27T19:24:34.178Z,4.60
2022-12-27T19:27:18.766Z,4.60
2022-12-27T19:29:56.233Z,4.70
2022-12-27T19:32:35.427Z,4.70
2022-12-27T19:35:08.845Z,4.60
2022-12-27T19:37:40.547Z,4.60
2022-12-27T19:40:17.635Z,4.60
2022-12-27T19:42:49.304Z,4.60
2022-12-27T19:45:24.138Z,4.60
2022-12-27T19:47:57.874Z,4.60
2022-12-27T19:50:29.468Z,4.60
2022-12-27T19:53:02.592Z,4.60
2022-12-27T19:55:36.530Z,4.50
2022-12-27T19:58:08.354Z,4.50
2022-12-27T20:00:43.379Z,4.40
2022-12-27T20:03:14.527Z,4.40
2022-12-27T20:06:13.795Z,4.40
2022-12-27T20:08:42.754Z,4.40
2022-12-27T20:11:18.431Z,4.30
2022-12-27T20:13:51.112Z,4.30
2022-12-27T20:16:25.186Z,4.30
2022-12-27T20:18:56.278Z,4.30
2022-12-27T20:21:28.027Z,4.30
2022-12-27T20:23:59.989Z,4.30
2022-12-27T20:26:32.235Z,4.30
2022-12-27T20:29:04.377Z,4.30
2022-12-27T20:31:44.506Z,4.30
2022-12-27T20:34:16.744Z,4.20
2022-12-27T20:36:49.038Z,4.20
2022-12-27T20:39:20.912Z,4.20
2022-12-27T20:41:52.996Z,4.30
2022-12-27T20:44:23.905Z,4.20
2022-12-27T20:46:59.806Z,4.20
2022-12-27T20:49:30.920Z,4.20
2022-12-27T20:52:02.494Z,4.30
2022-12-27T20:54:33.884Z,4.30
2022-12-27T20:57:05.523Z,4.30
2022-12-27T20:59:36.949Z,4.20
2022-12-27T21:02:12.532Z,4.30
2022-12-27T21:04:43.901Z,4.30
2022-12-27T21:07:16.019Z,4.40
2022-12-27T21:09:47.376Z,4.40
2022-12-27T21:12:19.074Z,4.40
2022-12-27T21:14:50.356Z,4.50
2022-12-27T21:17:24.217Z,4.50
2022-12-27T21:19:55.214Z,4.50
2022-12-27T21:22:26.717Z,4.50
2022-12-27T21:24:58.173Z,4.50
2022-12-27T21:27:29.328Z,4.50
2022-12-27T21:30:00.184Z,4.60
2022-12-27T21:32:34.758Z,4.60
2022-12-27T21:35:06.271Z,4.60
2022-12-27T21:37:37.457Z,4.60
2022-12-27T21:40:08.724Z,4.70
2022-12-27T21:42:39.943Z,4.60
2022-12-27T21:45:10.897Z,4.60
2022-12-27T21:47:45.629Z,4.70
2022-12-27T21:50:17.372Z,4.70
2022-12-27T21:52:49.364Z,4.70
2022-12-27T21:55:20.896Z,4.70
2022-12-27T21:57:52.581Z,4.70
2022-12-27T22:00:24.089Z,4.70
2022-12-27T22:02:58.383Z,4.70
2022-12-27T22:05:30.538Z,4.70
2022-12-27T22:08:02.295Z,4.80
2022-12-27T22:10:33.552Z,4.80
2022-12-27T22:13:05.211Z,4.80
2022-12-27T22:15:36.666Z,4.80
2022-12-27T22:18:10.922Z,4.80
2022-12-27T22:20:46.871Z,4.80
2022-12-27T22:23:20.119Z,4.80
2022-12-27T22:25:51.806Z,4.80
2022-12-27T22:28:22.927Z,4.80
2022-12-27T22:30:54.649Z,4.80
2022-12-27T22:33:29.130Z,4.80
2022-12-27T22:36:06.581Z,4.80
2022-12-27T22:38:40.619Z,4.80
2022-12-27T22:41:14.386Z,4.80
2022-12-27T22:43:51.269Z,4.80
2022-12-27T22:46:23.045Z,4.80
2022-12-27T22:48:58.775Z,4.80
2022-12-27T22:51:31.464Z,4.80
2022-12-27T22:54:05.029Z,4.70
2022-12-27T22:56:38.498Z,4.70
2022-12-27T22:59:10.263Z,4.70
2022-12-27T23:01:42.817Z,4.70
2022-12-27T23:04:18.336Z,4.60
2022-12-27T23:06:49.421Z,4.60
2022-12-27T23:09:21.036Z,4.50
2022-12-27T23:11:52.576Z,4.50
2022-12-27T23:14:24.054Z,4.40
2022-12-27T23:16:55.802Z,4.30
2022-12-27T23:19:29.916Z,4.30
2022-12-27T23:22:01.254Z,4.30
2022-12-27T23:24:32.354Z,4.20
2022-12-27T23:27:03.625Z,4.10
2022-12-27T23:29:35.147Z,4.10
2022-12-27T23:32:06.852Z,4.10
2022-12-27T23:34:40.802Z,4.10
2022-12-27T23:37:12.315Z,4.00
2022-12-27T23:39:43.752Z,4.00
2022-12-27T23:42:15.325Z,4.00
2022-12-27T23:44:47.152Z,3.90
2022-12-27T23:47:18.341Z,3.80
2022-12-27T23:49:52.463Z,3.80
2022-12-27T23:52:24.211Z,3.70
2022-12-27T23:54:55.653Z,3.60
2022-12-27T23:57:26.307Z,3.60
2022-12-27T23:59:57.772Z,3.60
